Vestavia, Alabama
Current Conditions -  °F | °C
As of 2:53 PM on Wednesday 26 Nov 2014 (Local Time) from KBHM Reporting Station
Broken Clouds Broken Clouds  
Wind Chill: 56°   Ceiling: 25000
Heat Index: 56°   Visibility: 10mi
Dew Point: 24°   Wind: 8mph
Humidity: 29%   Direction: 230°SW
Pressure: 30.08"   Gusts: NA
Location:  33.465°N, 86.8113°W
Report Text: KBHM 262053Z 23007KT 10SM FEW150 BKN250 13/M04 A3008 RMK AO2 SLP186 T01331044 56028
Loading
Personal Weather Stations






























Interactive Weather Map New forecast layout! Learn more

10-Day Weather Forecast

Advertisements
Track Severe Weather on mobile